WetterOnline ( https://www.wetteronline.de )

Wetter aktuell Hittbergen

Aktuelles Wetter: Lübeck/Blankensee (15m)

6-stündlich | Neueste Meldungen
Ortszeit Temperatur Wetter
Mi, 16.10. 20:00 11.4° C wolkenlos
Mi, 16.10. 14:00 12.8° C Sprühregen
Mi, 16.10. 8:00 13.1° C leichter Regen
Mi, 16.10. 2:00 12.9° C wolkig
Di, 15.10. 20:00 13.3° C Nebel
Di, 15.10. 14:00 19.5° C leicht bewölkt
Di, 15.10. 8:00 9.7° C wolkig
Di, 15.10. 2:00 11.5° C wolkig
Ortszeit Temperatur Wetter
Do, 17.10. 0:30 11.6° C bewölkt
Do, 17.10. 0:20 11.6° C bewölkt
Do, 17.10. 0:10 11.5° C wolkig
Do, 17.10. 0:00 11.2° C wolkig
Mi, 16.10. 23:50 11.2° C wolkig
Mi, 16.10. 23:40 11.4° C wolkig
Mi, 16.10. 23:30 11.5° C wolkig
Mi, 16.10. 23:00 10.0° C wolkig
Mi, 16.10. 22:30 9.7° C leicht bewölkt
Mi, 16.10. 22:00 10.7° C wolkenlos
Mi, 16.10. 21:30 10.7° C wolkenlos
Mi, 16.10. 21:00 11.1° C wolkenlos
Ortszeit Relative Feuchte Sichtweite
Mi, 16.10. 20:00 95% 17 km
Mi, 16.10. 14:00 95% 35 km
Mi, 16.10. 8:00 100% 4.0 km
Mi, 16.10. 2:00 98% 5.0 km
Di, 15.10. 20:00 99% <100 m
Di, 15.10. 14:00 72% 45 km
Di, 15.10. 8:00 100% 17 km
Di, 15.10. 2:00 94% 35 km
Ortszeit Relative Feuchte Sichtweite
Do, 17.10. 0:30 94% 35 km
Do, 17.10. 0:20 94% -
Do, 17.10. 0:10 93% -
Do, 17.10. 0:00 93% 30 km
Mi, 16.10. 23:50 93% -
Mi, 16.10. 23:40 92% -
Mi, 16.10. 23:30 91% 40 km
Mi, 16.10. 23:00 94% 27 km
Mi, 16.10. 22:30 96% 21 km
Mi, 16.10. 22:00 94% 27 km
Mi, 16.10. 21:30 94% 30 km
Mi, 16.10. 21:00 93% 30 km
Ortszeit Niederschlagsmenge Niederschlagsart
Mi, 16.10. 20:00 5 l/m2 in 12 Std. Regen
Mi, 16.10. 14:00 5 l/m2 in 6 Std. Regen
Mi, 16.10. 8:00 6 l/m2 in 12 Std. Regen
Mi, 16.10. 2:00 0.0 l/m2 in 6 Std. -
Di, 15.10. 20:00 0.0 l/m2 in 12 Std. -
Di, 15.10. 14:00 0.0 l/m2 in 6 Std. -
Di, 15.10. 8:00 0.0 l/m2 in 12 Std. -
Di, 15.10. 2:00 0.0 l/m2 in 6 Std. -
Ortszeit Niederschlagsmenge Niederschlagsart
Do, 17.10. 0:30 0.0 l/m2 in 1 Std. -
Do, 17.10. 0:20 keine Meldung -
Do, 17.10. 0:10 keine Meldung -
Do, 17.10. 0:00 0.0 l/m2 in 1 Std. -
Mi, 16.10. 23:50 keine Meldung -
Mi, 16.10. 23:40 keine Meldung -
Mi, 16.10. 23:30 0.0 l/m2 in 1 Std. -
Mi, 16.10. 23:00 0.0 l/m2 in 1 Std. -
Mi, 16.10. 22:30 0.0 l/m2 in 1 Std. -
Mi, 16.10. 22:00 0.0 l/m2 in 1 Std. -
Mi, 16.10. 21:30 0.0 l/m2 in 1 Std. -
Mi, 16.10. 21:00 0.0 l/m2 in 1 Std. -
Ortszeit Stärke Spitze Richtung
km/h Bft. km/h Grad Sektor
Mi, 16.10. 20:00 6 1 26 190° S
Mi, 16.10. 14:00 14 3 29 270° W
Mi, 16.10. 8:00 7 2 25 300° NW
Mi, 16.10. 2:00 6 1 15 350° N
Di, 15.10. 20:00 0 0 14 - -
Di, 15.10. 14:00 4 1 18 220° SW
Di, 15.10. 8:00 7 2 14 70° O
Di, 15.10. 2:00 9 2 22 80° O
Ortszeit Stärke Spitze Richtung
km/h Bft. km/h Grad Sektor
Do, 17.10. 0:30 9 2 19 180° S
Do, 17.10. 0:20 9 2 - 180° S
Do, 17.10. 0:10 7 2 - 180° S
Do, 17.10. 0:00 9 2 19 180° S
Mi, 16.10. 23:50 9 2 - 180° S
Mi, 16.10. 23:40 7 2 - 180° S
Mi, 16.10. 23:30 9 2 19 180° S
Mi, 16.10. 23:00 6 1 11 150° SO
Mi, 16.10. 22:30 4 1 11 140° SO
Mi, 16.10. 22:00 7 2 14 170° S
Mi, 16.10. 21:30 7 2 14 170° S
Mi, 16.10. 21:00 7 2 14 170° S
Ortszeit Untergrenze Bedeckung Gattung
total tief tief mittel hoch
Mi, 16.10. 20:00 - 0/8 0/8 - - -
Mi, 16.10. 14:00 210 m 8/8 8/8 - - -
Mi, 16.10. 8:00 90 m 7/8 7/8 - - -
Mi, 16.10. 2:00 4500 m 6/8 2/8 - - -
Di, 15.10. 20:00 9000 m 7/8 0/8 - - -
Di, 15.10. 14:00 7800 m 7/8 0/8 - - -
Di, 15.10. 8:00 9000 m 8/8 0/8 - - -
Di, 15.10. 2:00 8100 m 8/8 0/8 - - -
Ortszeit Bedeckungsgrad in Achtel und Wolkenuntergrenze
Do, 17.10. 0:30 2(960m) 6(1350m) 7(7800m)
Do, 17.10. 0:20 2(960m) 6(1350m) 7(7800m)
Do, 17.10. 0:10 5(1380m) 7(7800m) 7(8400m)
Do, 17.10. 0:00 5(1350m) 6(8400m) 6(8400m)
Mi, 16.10. 23:50 5(1350m) 6(8400m)
Mi, 16.10. 23:40 6(1320m)
Mi, 16.10. 23:30 4(1380m) 5(7800m)
Mi, 16.10. 23:00 8(7800m)
Mi, 16.10. 22:30 5(8400m)
Mi, 16.10. 22:00 keine Wolken
Mi, 16.10. 21:30 keine Wolken
Mi, 16.10. 21:00 keine Wolken
Ortszeit Luftdruck NN (hPa) Tendenz (hPa in 3 Std.)
Mi, 16.10. 20:00 1009 + 0,7
Mi, 16.10. 14:00 1008 + 0,9
Mi, 16.10. 8:00 1006 - 0,2
Mi, 16.10. 2:00 1005 - 0,8
Di, 15.10. 20:00 1006 + 0,5
Di, 15.10. 14:00 1006 - 0,6
Di, 15.10. 8:00 1007 - 1,4
Di, 15.10. 2:00 1010 - 1,8
Ortszeit Luftdruck NN (hPa) Tendenz (hPa in 3 Std.)
Do, 17.10. 0:30 1009 - 0,2
Do, 17.10. 0:20 1009 keine Meldung
Do, 17.10. 0:10 1009 keine Meldung
Do, 17.10. 0:00 1009 - 0,2
Mi, 16.10. 23:50 1009 keine Meldung
Mi, 16.10. 23:40 1009 keine Meldung
Mi, 16.10. 23:30 1009 - 0,3
Mi, 16.10. 23:00 1009 - 0,3
Mi, 16.10. 22:30 1009 - 0,3
Mi, 16.10. 22:00 1009 0,0
Mi, 16.10. 21:30 1009 + 0,2
Mi, 16.10. 21:00 1009 + 0,5
Ortszeit Schneehöhe (cm)
Mi, 16.10. 20:00 0
Mi, 16.10. 14:00 0
Mi, 16.10. 8:00 0
Mi, 16.10. 2:00 0
Di, 15.10. 20:00 0
Di, 15.10. 14:00 0
Di, 15.10. 8:00 0
Di, 15.10. 2:00 0
Ortszeit Schneehöhe (cm)
Do, 17.10. 0:30 0
Do, 17.10. 0:20 0
Do, 17.10. 0:10 0
Do, 17.10. 0:00 0
Mi, 16.10. 23:50 0
Mi, 16.10. 23:40 0
Mi, 16.10. 23:30 0
Mi, 16.10. 23:00 0
Mi, 16.10. 22:30 0
Mi, 16.10. 22:00 0
Mi, 16.10. 21:30 0
Mi, 16.10. 21:00 0
Link zu dieser Seite / Seite empfehlen

Das Wetter in ...